Time;durP1;ratioP1;P1;durP2;ratioP2;P2;SDS_P1;SDS_P2;PMS_P1;PMS_P2;Temp;Humidity;BMP_temperature;BMP_pressure;BME280_temperature;BME280_humidity;BME280_pressure;Samples;Min_cycle;Max_cycle;Signal;HPM_P1;HPM_P2
2023/07/13 00:00:59;;;;;;;7.65;1.17;;;;;;;18.52;59.48;100578.41;6155634;23;20032;-77
2023/07/13 00:04:02;;;;;;;5.53;0.88;;;;;;;18.64;59.13;100574.72;6137544;23;20029;-76
2023/07/13 00:07:07;;;;;;;4.40;1.30;;;;;;;18.53;59.13;100580.06;6155368;23;20029;-76
2023/07/13 00:10:10;;;;;;;5.00;1.13;;;;;;;18.30;59.64;100585.50;6137457;23;20355;-76
2023/07/13 00:13:13;;;;;;;4.75;1.08;;;;;;;18.40;59.19;100566.19;6155502;23;20083;-77
2023/07/13 00:16:18;;;;;;;5.00;0.90;;;;;;;18.57;59.08;100571.75;6155495;23;20049;-75
2023/07/13 00:19:21;;;;;;;4.15;0.95;;;;;;;18.36;59.58;100569.09;6155185;23;20537;-75
2023/07/13 00:22:25;;;;;;;7.03;1.10;;;;;;;18.37;59.23;100575.22;6155683;23;20448;-77
2023/07/13 00:25:28;;;;;;;3.72;0.85;;;;;;;18.29;59.41;100583.81;6155360;23;20545;-76
2023/07/13 00:28:32;;;;;;;4.60;1.13;;;;;;;18.34;59.86;100565.72;6155340;23;20032;-76
2023/07/13 00:31:36;;;;;;;5.57;1.13;;;;;;;18.39;59.89;100572.47;6155260;23;20024;-76
2023/07/13 00:34:41;;;;;;;2.65;0.88;;;;;;;18.35;60.07;100567.44;6155272;23;20028;-75
2023/07/13 00:37:45;;;;;;;2.60;1.10;;;;;;;18.43;60.47;100571.22;6155167;23;20072;-74
2023/07/13 00:40:48;;;;;;;3.97;1.08;;;;;;;18.51;59.95;100574.91;6155599;23;20044;-75
2023/07/13 00:43:51;;;;;;;5.95;1.40;;;;;;;18.36;60.77;100587.63;6124350;23;20512;-74
2023/07/13 00:46:57;;;;;;;3.88;1.35;;;;;;;18.22;61.45;100584.44;6125649;23;20071;-76
2023/07/13 00:50:03;;;;;;;4.07;0.90;;;;;;;18.20;61.95;100584.59;6125684;23;20471;-76
2023/07/13 00:53:07;;;;;;;4.05;1.05;;;;;;;18.26;61.54;100585.91;6125579;23;20029;-74
2023/07/13 00:56:12;;;;;;;2.47;0.80;;;;;;;18.20;61.72;100584.59;6125723;23;20020;-77
2023/07/13 00:59:18;;;;;;;2.63;1.00;;;;;;;18.14;61.97;100590.38;6124552;23;20025;-76
2023/07/13 01:02:24;;;;;;;5.15;1.23;;;;;;;18.12;62.34;100590.53;6125647;23;20040;-74
2023/07/13 01:05:27;;;;;;;3.78;0.80;;;;;;;18.21;61.60;100588.06;6107572;23;20098;-74
2023/07/13 01:08:30;;;;;;;5.45;1.20;;;;;;;17.95;62.93;100584.94;6124320;23;20025;-74
2023/07/13 01:11:36;;;;;;;3.38;1.20;;;;;;;18.03;62.62;100580.72;6124544;23;20045;-76
2023/07/13 01:14:40;;;;;;;5.43;0.95;;;;;;;17.82;63.04;100571.88;6125489;23;20097;-74
2023/07/13 01:17:44;;;;;;;2.75;1.35;;;;;;;17.82;63.46;100575.38;6125503;23;20361;-76
2023/07/13 01:20:54;;;;;;;3.45;1.10;;;;;;;17.63;64.29;100577.78;6125532;23;20028;-76
2023/07/13 01:23:57;;;;;;;8.25;1.42;;;;;;;17.56;64.58;100573.97;6124361;23;20076;-74
2023/07/13 01:27:00;;;;;;;3.60;1.05;;;;;;;17.32;65.19;100576.78;6125386;23;20093;-74
2023/07/13 01:30:05;;;;;;;3.03;1.10;;;;;;;17.44;64.78;100576.63;6124340;23;20153;-73
2023/07/13 01:33:18;;;;;;;5.15;1.38;;;;;;;17.41;64.46;100579.53;6125385;23;20407;-74
2023/07/13 01:36:21;;;;;;;5.70;1.05;;;;;;;17.17;65.03;100592.91;6124455;23;20029;-74
2023/07/13 01:39:26;;;;;;;5.60;1.20;;;;;;;17.14;65.66;100584.38;6125369;23;20345;-74
2023/07/13 01:42:29;;;;;;;3.85;1.13;;;;;;;17.11;65.82;100574.03;6131570;23;20032;-75
2023/07/13 01:45:33;;;;;;;5.68;1.27;;;;;;;17.14;65.62;100584.38;6136713;23;20032;-75
2023/07/13 01:48:38;;;;;;;3.28;1.10;;;;;;;17.17;65.18;100589.41;6136734;23;20024;-75
2023/07/13 01:51:41;;;;;;;4.68;1.40;;;;;;;16.88;66.65;100595.19;6154825;23;20064;-76
2023/07/13 01:54:44;;;;;;;5.97;1.10;;;;;;;16.66;67.30;100598.59;6136797;23;20028;-76
2023/07/13 01:57:48;;;;;;;4.05;1.08;;;;;;;16.65;67.18;100593.41;6154823;23;20040;-76
2023/07/13 02:00:52;;;;;;;4.05;1.10;;;;;;;16.50;67.84;100601.56;6136718;23;20056;-75
2023/07/13 02:03:55;;;;;;;5.40;1.20;;;;;;;16.61;67.74;100591.97;6154785;23;20048;-76
2023/07/13 02:06:59;;;;;;;3.85;1.10;;;;;;;16.55;67.07;100603.00;6154922;23;20111;-75
2023/07/13 02:10:02;;;;;;;6.13;1.13;;;;;;;16.32;67.00;100602.94;6136684;23;20052;-75
2023/07/13 02:13:09;;;;;;;6.82;1.40;;;;;;;16.30;66.99;100609.28;6136655;23;20116;-76
2023/07/13 02:16:12;;;;;;;4.65;1.30;;;;;;;16.26;67.03;100600.75;6154672;23;20024;-75
2023/07/13 02:19:15;;;;;;;4.10;1.35;;;;;;;16.14;66.60;100599.88;6154757;23;20510;-75
2023/07/13 02:22:19;;;;;;;5.57;1.02;;;;;;;16.08;66.73;100602.13;6154548;23;20032;-75
2023/07/13 02:25:22;;;;;;;5.55;1.67;;;;;;;15.95;67.07;100605.69;6154511;23;20072;-75
2023/07/13 02:28:26;;;;;;;5.45;1.05;;;;;;;16.00;66.74;100603.53;6154580;23;20068;-74
2023/07/13 02:31:29;;;;;;;3.67;0.80;;;;;;;15.88;67.39;100609.72;6154576;23;20034;-75
2023/07/13 02:34:33;;;;;;;6.50;1.35;;;;;;;15.85;67.80;100609.09;6154524;23;20100;-75
2023/07/13 02:37:36;;;;;;;5.95;1.30;;;;;;;15.87;68.10;100612.47;6154848;23;20024;-75
2023/07/13 02:40:46;;;;;;;7.47;1.25;;;;;;;15.78;68.47;100614.81;6154651;23;20411;-75
2023/07/13 02:43:49;;;;;;;4.20;0.93;;;;;;;15.78;68.62;100613.97;6155322;23;20080;-76
2023/07/13 02:46:52;;;;;;;4.85;1.05;;;;;;;15.83;68.66;100622.41;6156293;23;20490;-75
2023/07/13 02:49:55;;;;;;;3.85;1.10;;;;;;;15.74;68.17;100616.00;6138168;23;20033;-75
2023/07/13 02:53:00;;;;;;;5.07;1.30;;;;;;;15.64;68.08;100611.47;6156136;23;20502;-75
2023/07/13 02:56:07;;;;;;;7.50;1.10;;;;;;;15.57;68.83;100617.19;6138219;23;20041;-75
2023/07/13 02:59:10;;;;;;;5.03;1.02;;;;;;;15.66;68.80;100615.66;6138072;23;20091;-75
2023/07/13 03:02:14;;;;;;;7.93;1.20;;;;;;;15.50;69.10;100621.19;6137971;23;20518;-75
2023/07/13 03:05:17;;;;;;;5.88;1.48;;;;;;;15.39;69.39;100625.56;6137988;23;20028;-75
2023/07/13 03:08:26;;;;;;;4.20;1.08;;;;;;;15.38;69.66;100629.13;6139135;23;20097;-74
2023/07/13 03:11:32;;;;;;;6.47;1.45;;;;;;;15.21;70.50;100625.03;6156157;23;20028;-75
2023/07/13 03:14:51;;;;;;;4.75;1.30;;;;;;;15.18;70.11;100627.91;6138071;23;20084;-75
2023/07/13 03:17:54;;;;;;;6.03;1.13;;;;;;;15.10;70.32;100639.81;6137982;23;20050;-75
2023/07/13 03:20:58;;;;;;;5.03;1.10;;;;;;;15.13;70.52;100637.94;6137942;23;20080;-75
2023/07/13 03:24:02;;;;;;;4.68;1.13;;;;;;;15.19;70.69;100637.47;6137800;23;20039;-74
2023/07/13 03:27:06;;;;;;;7.25;1.35;;;;;;;15.16;70.75;100633.28;6137706;23;20024;-74
2023/07/13 03:30:15;;;;;;;4.43;1.23;;;;;;;15.19;70.67;100632.19;6138400;23;20526;-73
2023/07/13 03:33:19;;;;;;;3.67;0.90;;;;;;;15.17;70.56;100645.50;6137780;23;20111;-74
2023/07/13 03:36:26;;;;;;;7.35;1.25;;;;;;;15.02;70.74;100646.56;6137851;23;20024;-74
2023/07/13 03:39:33;;;;;;;4.78;1.05;;;;;;;14.98;70.74;100645.09;6137874;23;20096;-73
2023/07/13 03:42:36;;;;;;;4.22;1.45;;;;;;;15.01;70.60;100640.44;6155607;23;20029;-72
2023/07/13 03:45:39;;;;;;;7.65;1.20;;;;;;;14.92;71.36;100640.25;6155756;23;20531;-73
2023/07/13 03:48:44;;;;;;;4.25;0.93;;;;;;;14.87;72.05;100653.72;6155772;23;20028;-72
2023/07/13 03:51:48;;;;;;;3.25;0.80;;;;;;;14.84;71.30;100654.78;6154747;23;20044;-73
2023/07/13 03:54:52;;;;;;;4.82;1.25;;;;;;;14.85;71.46;100655.63;6137046;23;20028;-71
2023/07/13 03:58:27;;;;;;;3.00;1.02;;;;;;;14.90;70.42;100661.41;6137695;23;20072;-73
2023/07/13 04:01:32;;;;;;;5.97;1.15;;;;;;;14.73;71.48;100664.34;6137431;23;20025;-73
2023/07/13 04:04:36;;;;;;;4.47;1.00;;;;;;;14.60;72.21;100662.53;6137823;23;20056;-73
2023/07/13 04:07:40;;;;;;;5.65;1.20;;;;;;;14.49;73.12;100664.16;6155328;23;20029;-73
2023/07/13 04:10:44;;;;;;;8.52;1.60;;;;;;;14.51;73.10;100667.56;6155423;23;20040;-72
2023/07/13 04:13:50;;;;;;;8.70;1.63;;;;;;;14.65;72.80;100670.97;6155598;23;20076;-74
2023/07/13 04:16:54;;;;;;;5.63;1.20;;;;;;;14.64;72.30;100674.56;6137251;23;20021;-73
2023/07/13 04:19:57;;;;;;;2.65;1.00;;;;;;;14.65;72.55;100664.84;6155498;23;20474;-75
2023/07/13 04:23:01;;;;;;;3.22;0.90;;;;;;;14.59;72.71;100675.78;6155449;23;20024;-74
2023/07/13 04:26:06;;;;;;;4.22;1.10;;;;;;;14.67;72.53;100677.91;6155246;23;20466;-74
2023/07/13 04:29:09;;;;;;;5.13;1.10;;;;;;;15.01;69.04;100673.84;6155315;23;20028;-72
2023/07/13 04:32:13;;;;;;;3.42;1.25;;;;;;;14.81;70.99;100677.84;6155272;23;20068;-74
2023/07/13 04:35:17;;;;;;;4.57;1.08;;;;;;;14.78;70.66;100673.63;6155238;23;20462;-74
2023/07/13 04:38:20;;;;;;;6.07;1.00;;;;;;;14.82;71.24;100671.63;6155088;23;20363;-71
2023/07/13 04:41:24;;;;;;;5.35;1.50;;;;;;;15.02;69.96;100668.44;6155207;23;20029;-81
2023/07/13 04:45:17;;;;;;;5.63;1.40;;;;;;;15.18;68.07;100662.97;6155004;23;20467;-78
2023/07/13 04:48:21;;;;;;;3.53;1.40;;;;;;;15.09;68.80;100672.38;6152874;23;20105;-78
2023/07/13 04:51:28;;;;;;;4.07;1.33;;;;;;;15.22;67.70;100672.38;6154507;23;20032;-79
2023/07/13 04:54:31;;;;;;;5.63;1.50;;;;;;;15.39;67.48;100672.97;6119467;23;20044;-78
2023/07/13 04:57:38;;;;;;;2.80;0.80;;;;;;;15.18;67.77;100670.88;6154580;23;20107;-80
2023/07/13 05:00:41;;;;;;;8.55;1.80;;;;;;;15.01;69.42;100661.50;6136809;23;20079;-81
2023/07/13 05:03:50;;;;;;;2.63;0.77;;;;;;;15.20;69.56;100673.41;6155269;23;20075;-79
2023/07/13 05:06:53;;;;;;;3.92;1.20;;;;;;;15.18;69.07;100656.88;6137250;23;20029;-82
2023/07/13 05:10:31;;;;;;;4.10;1.13;;;;;;;15.06;68.92;100662.06;6155484;23;20360;-85
2023/07/13 05:14:03;;;;;;;4.15;1.10;;;;;;;15.27;68.21;100658.88;6121122;23;20061;-85
2023/07/13 05:18:21;;;;;;;3.83;1.10;;;;;;;15.42;67.85;100663.06;6147898;23;20466;-84
2023/07/13 05:21:41;;;;;;;3.83;1.02;;;;;;;15.46;68.13;100661.91;6140175;23;20084;-84
2023/07/13 05:24:46;;;;;;;6.32;0.90;;;;;;;15.58;67.53;100663.66;6137034;23;20065;-84
2023/07/13 05:27:53;;;;;;;4.63;1.08;;;;;;;15.73;68.46;100671.44;6136920;23;20056;-85
2023/07/13 05:30:57;;;;;;;4.95;1.15;;;;;;;15.89;68.34;100668.56;6154202;23;20028;-85
2023/07/13 05:34:05;;;;;;;7.25;1.20;;;;;;;16.43;60.71;100665.47;6137256;23;20032;-84
2023/07/13 05:37:13;;;;;;;4.28;0.88;;;;;;;16.75;58.04;100668.34;6154615;23;20368;-83
2023/07/13 05:40:17;;;;;;;3.40;0.85;;;;;;;17.05;57.05;100661.69;6153471;23;20025;-83
2023/07/13 05:43:21;;;;;;;4.00;0.80;;;;;;;17.32;56.10;100667.47;6135587;23;20364;-83
2023/07/13 05:46:25;;;;;;;3.33;1.10;;;;;;;17.40;55.64;100670.34;6154903;23;20098;-83
2023/07/13 05:49:30;;;;;;;2.70;0.80;;;;;;;17.52;55.20;100668.56;6155041;23;20024;-82
2023/07/13 05:52:33;;;;;;;4.75;1.00;;;;;;;17.46;55.10;100663.75;6134782;23;20032;-82
2023/07/13 05:55:47;;;;;;;2.88;0.70;;;;;;;17.49;54.80;100674.09;6152444;23;20020;-81
2023/07/13 05:58:50;;;;;;;4.90;1.30;;;;;;;17.60;54.58;100673.22;6134292;23;20024;-76
2023/07/13 06:01:53;;;;;;;3.55;0.90;;;;;;;17.56;54.27;100675.28;6152487;23;20041;-78
2023/07/13 06:04:57;;;;;;;5.00;0.90;;;;;;;17.66;54.24;100681.50;6153096;23;20043;-75
2023/07/13 06:08:00;;;;;;;5.30;0.82;;;;;;;17.67;54.15;100679.69;6153936;23;20052;-77
2023/07/13 06:11:15;;;;;;;4.80;0.88;;;;;;;17.57;54.49;100681.41;6154948;23;20044;-82
2023/07/13 06:14:18;;;;;;;4.18;0.82;;;;;;;17.42;54.77;100689.59;6154107;23;20456;-78
2023/07/13 06:17:22;;;;;;;6.97;1.38;;;;;;;17.60;54.46;100683.81;6155031;23;20021;-81
2023/07/13 06:20:26;;;;;;;4.03;1.33;;;;;;;17.71;54.33;100693.50;6154522;23;20026;-82
2023/07/13 06:23:29;;;;;;;2.53;0.70;;;;;;;17.81;54.13;100689.22;6156721;23;20076;-74
2023/07/13 06:26:32;;;;;;;5.40;0.90;;;;;;;17.76;53.90;100692.19;6156426;23;20029;-78
2023/07/13 06:29:35;;;;;;;5.10;0.80;;;;;;;17.77;53.62;100704.50;6156712;23;20036;-79
2023/07/13 06:32:39;;;;;;;3.40;0.70;;;;;;;17.83;53.60;100688.13;6156486;23;20048;-78
2023/07/13 06:35:42;;;;;;;3.92;1.45;;;;;;;18.10;53.12;100689.53;6156538;23;20025;-79
2023/07/13 06:38:45;;;;;;;1.92;0.65;;;;;;;17.96;52.96;100690.63;6156634;23;20023;-80
2023/07/13 06:41:50;;;;;;;4.28;0.60;;;;;;;17.96;53.23;100701.22;6156476;23;20375;-80
2023/07/13 06:45:02;;;;;;;3.33;0.93;;;;;;;18.16;52.48;100696.97;6138410;23;20032;-78
2023/07/13 06:48:05;;;;;;;2.65;0.60;;;;;;;18.32;52.14;100713.28;6138372;23;20105;-74
2023/07/13 06:51:09;;;;;;;3.88;1.10;;;;;;;18.34;52.19;100708.69;6156474;23;20028;-82
2023/07/13 06:54:13;;;;;;;2.70;0.60;;;;;;;18.31;52.03;100711.59;6156487;23;20028;-80
2023/07/13 06:57:17;;;;;;;2.47;0.50;;;;;;;18.40;51.35;100707.34;6156461;23;20031;-77
2023/07/13 07:00:20;;;;;;;2.50;0.80;;;;;;;18.48;50.88;100710.22;6156469;23;20039;-77
2023/07/13 07:03:26;;;;;;;2.92;0.63;;;;;;;18.48;50.62;100698.78;6156411;23;20071;-78
2023/07/13 07:06:33;;;;;;;4.30;0.93;;;;;;;18.54;50.58;100696.47;6156298;23;20025;-74
2023/07/13 07:09:36;;;;;;;3.72;1.10;;;;;;;18.62;50.76;100694.97;6156680;23;20049;-74
2023/07/13 07:12:40;;;;;;;2.95;0.80;;;;;;;18.85;50.77;100701.03;6156594;23;20534;-73
2023/07/13 07:15:44;;;;;;;4.07;0.68;;;;;;;18.79;50.30;100705.03;6156588;23;20559;-74
2023/07/13 07:18:47;;;;;;;3.40;0.77;;;;;;;18.84;50.20;100704.66;6156565;23;20093;-76
2023/07/13 07:21:50;;;;;;;4.90;0.90;;;;;;;19.01;49.70;100712.00;6156465;23;20029;-73
2023/07/13 07:24:54;;;;;;;3.45;0.80;;;;;;;19.09;49.24;100709.56;6156389;23;20107;-74
2023/07/13 07:27:59;;;;;;;3.50;0.88;;;;;;;19.06;49.56;100709.81;6156529;23;20050;-73
2023/07/13 07:31:05;;;;;;;4.45;0.73;;;;;;;19.03;49.46;100704.78;6156567;23;20024;-73
2023/07/13 07:34:09;;;;;;;2.20;0.50;;;;;;;19.16;48.52;100721.31;6156459;23;20092;-73
2023/07/13 07:37:14;;;;;;;2.63;0.52;;;;;;;19.18;48.63;100710.59;6156381;23;20072;-73
2023/07/13 07:40:19;;;;;;;2.97;0.40;;;;;;;19.43;48.06;100714.59;6156413;23;20028;-73
2023/07/13 07:43:23;;;;;;;2.28;0.60;;;;;;;19.29;47.51;100711.31;6156105;23;20463;-73
2023/07/13 07:46:27;;;;;;;3.15;0.60;;;;;;;19.21;48.19;100727.06;6138301;23;20144;-73
2023/07/13 07:49:31;;;;;;;4.13;0.63;;;;;;;19.22;48.30;100720.78;6156094;23;20025;-70
2023/07/13 07:52:34;;;;;;;5.30;0.55;;;;;;;19.20;48.42;100725.38;6155612;23;20076;-74
2023/07/13 07:55:38;;;;;;;3.33;0.85;;;;;;;19.29;47.46;100724.59;6155812;23;20068;-74
2023/07/13 07:58:41;;;;;;;3.72;0.70;;;;;;;19.31;47.18;100715.69;6155811;23;20100;-74
2023/07/13 08:01:46;;;;;;;3.38;1.40;;;;;;;19.34;46.81;100718.06;6155827;23;20087;-73
2023/07/13 08:04:49;;;;;;;2.38;0.77;;;;;;;19.36;46.84;100718.75;6155776;23;20032;-74
2023/07/13 08:07:52;;;;;;;2.45;0.65;;;;;;;19.46;46.62;100724.94;6155643;23;20027;-74
2023/07/13 08:10:55;;;;;;;3.15;0.65;;;;;;;19.47;46.24;100721.34;6155624;23;20154;-73
2023/07/13 08:13:58;;;;;;;4.50;0.60;;;;;;;19.63;45.87;100723.50;6155727;23;20029;-76
2023/07/13 08:17:02;;;;;;;2.10;0.50;;;;;;;19.73;46.09;100719.09;6155710;23;20088;-75
2023/07/13 08:20:06;;;;;;;3.00;0.57;;;;;;;19.85;45.00;100711.88;6155664;23;20106;-74
2023/07/13 08:23:10;;;;;;;2.40;0.55;;;;;;;19.96;45.00;100711.75;6155617;23;20028;-74
2023/07/13 08:26:18;;;;;;;4.60;0.80;;;;;;;20.01;44.91;100712.19;6153199;23;20072;-73
2023/07/13 08:29:23;;;;;;;4.70;0.80;;;;;;;20.23;44.19;100707.59;6154122;23;20052;-74
2023/07/13 08:32:26;;;;;;;3.83;0.93;;;;;;;20.23;44.15;100705.81;6155654;23;20096;-74
2023/07/13 08:35:41;;;;;;;2.72;0.60;;;;;;;20.37;43.32;100707.19;6155558;23;20028;-74
2023/07/13 08:38:44;;;;;;;2.15;0.57;;;;;;;20.45;43.28;100707.31;6155592;23;20076;-74
2023/07/13 08:41:56;;;;;;;3.33;0.90;;;;;;;20.46;43.42;100706.38;6155118;23;20128;-75
2023/07/13 08:45:17;;;;;;;5.78;0.63;;;;;;;20.67;42.75;100711.56;6155476;23;20088;-73
2023/07/13 08:48:26;;;;;;;2.05;0.57;;;;;;;20.69;42.23;100701.63;6155345;23;20486;-73
2023/07/13 08:51:35;;;;;;;2.78;0.80;;;;;;;20.67;42.04;100719.53;6155415;23;20028;-73
2023/07/13 08:54:47;;;;;;;2.75;0.70;;;;;;;20.50;42.71;100706.94;6155483;23;20079;-74
2023/07/13 08:58:28;;;;;;;3.67;0.88;;;;;;;20.76;42.65;100699.25;6155473;23;20052;-74
2023/07/13 09:01:47;;;;;;;2.83;0.80;;;;;;;20.97;42.53;100705.22;6154890;23;20023;-74
2023/07/13 09:04:54;;;;;;;4.70;0.80;;;;;;;20.97;42.63;100685.78;6155795;23;20101;-74
2023/07/13 09:08:35;;;;;;;3.10;0.63;;;;;;;21.05;42.48;100681.41;6155754;23;20040;-73
2023/07/13 09:12:16;;;;;;;3.42;0.70;;;;;;;21.00;42.20;100702.28;6155359;23;20033;-74
2023/07/13 09:15:39;;;;;;;3.38;0.80;;;;;;;21.06;41.69;100696.41;6125657;23;20032;-75
2023/07/13 09:18:44;;;;;;;;;;;;;;;21.20;41.64;100694.25;6155578;23;20105;-75
2023/07/13 09:21:51;;;;;;;1.65;0.50;;;;;;;21.30;41.58;100695.06;6155096;23;19915;-75
2023/07/13 09:25:02;;;;;;;2.92;0.90;;;;;;;21.47;42.04;100696.97;6137312;23;20404;-75
2023/07/13 09:28:17;;;;;;;2.38;0.65;;;;;;;21.34;41.68;100693.78;6155306;23;20462;-75
2023/07/13 09:31:29;;;;;;;3.28;0.70;;;;;;;21.33;41.73;100692.09;6155318;23;20078;-75
2023/07/13 09:34:33;;;;;;;2.50;0.60;;;;;;;21.18;41.77;100686.41;6155190;23;20025;-75
2023/07/13 09:37:37;;;;;;;2.55;0.85;;;;;;;21.29;41.70;100688.06;6155188;23;20025;-75
2023/07/13 09:40:48;;;;;;;4.75;0.85;;;;;;;21.45;41.53;100684.81;6155214;23;20024;-75
2023/07/13 09:44:47;;;;;;;2.92;1.10;;;;;;;21.38;41.42;100702.34;6154853;23;20080;-75
2023/07/13 09:48:11;;;;;;;2.33;0.50;;;;;;;21.27;41.23;100685.53;6155047;23;20024;-75
2023/07/13 09:51:15;;;;;;;2.13;0.50;;;;;;;21.39;41.48;100677.44;6136937;23;20049;-75
2023/07/13 09:54:20;;;;;;;4.13;0.60;;;;;;;21.71;40.79;100677.00;6156663;23;20080;-75
2023/07/13 09:57:25;;;;;;;2.47;0.80;;;;;;;21.83;40.64;100673.97;6157186;23;20348;-75
2023/07/13 10:00:29;;;;;;;2.45;0.68;;;;;;;21.83;41.28;100670.47;6157105;23;20024;-75
2023/07/13 10:03:39;;;;;;;2.13;0.63;;;;;;;21.94;40.09;100678.25;6157071;23;20101;-75
2023/07/13 10:06:43;;;;;;;6.78;1.00;;;;;;;22.18;40.13;100671.53;6157001;23;20028;-75
2023/07/13 10:10:25;;;;;;;3.10;0.60;;;;;;;22.44;38.95;100668.94;6156941;23;20052;-75
2023/07/13 10:13:40;;;;;;;4.13;1.15;;;;;;;22.43;39.31;100673.44;6156931;23;20048;-75
2023/07/13 10:16:50;;;;;;;2.78;0.77;;;;;;;22.32;39.88;100673.66;6156830;23;20368;-80
2023/07/13 10:19:56;;;;;;;4.75;1.15;;;;;;;22.04;38.94;100668.34;6157709;23;20399;-83
2023/07/13 10:23:09;;;;;;;1.95;0.57;;;;;;;22.18;38.45;100674.19;6156892;23;20052;-82
2023/07/13 10:26:23;;;;;;;3.85;1.17;;;;;;;22.13;38.56;100671.94;6156717;23;20023;-76
2023/07/13 10:29:30;;;;;;;2.25;0.70;;;;;;;22.14;38.34;100670.13;6157369;23;20024;-75
2023/07/13 10:32:33;;;;;;;2.47;0.70;;;;;;;22.28;38.37;100674.97;6156830;23;20475;-76
2023/07/13 10:35:38;;;;;;;3.10;0.65;;;;;;;22.33;37.93;100670.00;6156859;23;20021;-75
2023/07/13 10:38:45;;;;;;;2.45;0.60;;;;;;;22.21;38.26;100677.41;6156874;23;20482;-76
2023/07/13 10:41:57;;;;;;;2.92;0.75;;;;;;;22.12;38.03;100672.09;6156826;23;20080;-75
2023/07/13 10:45:00;;;;;;;2.33;0.52;;;;;;;22.10;37.79;100671.41;6138712;23;20032;-75
2023/07/13 10:48:06;;;;;;;2.67;0.90;;;;;;;22.08;37.76;100668.06;6156698;23;20052;-75
2023/07/13 10:51:13;;;;;;;5.03;0.70;;;;;;;22.21;37.78;100668.56;6156626;23;20028;-75
2023/07/13 10:54:26;;;;;;;4.03;0.80;;;;;;;22.37;37.72;100678.53;6156840;23;20075;-75
2023/07/13 10:57:42;;;;;;;3.65;0.80;;;;;;;22.18;37.29;100674.19;6156854;23;20391;-75
2023/07/13 11:01:00;;;;;;;4.90;0.73;;;;;;;22.38;37.60;100672.22;6156748;23;20079;-75
2023/07/13 11:04:04;;;;;;;2.33;0.65;;;;;;;22.43;37.21;100684.09;6156428;23;20072;-75
2023/07/13 11:07:22;;;;;;;3.47;0.80;;;;;;;22.26;37.57;100679.59;6156551;23;20049;-75
2023/07/13 11:11:02;;;;;;;3.38;0.80;;;;;;;22.31;38.01;100679.97;6156632;23;20028;-75
2023/07/13 11:14:36;;;;;;;4.10;0.80;;;;;;;22.24;37.54;100673.59;6044827;23;20481;-74
2023/07/13 11:18:03;;;;;;;2.55;0.70;;;;;;;22.44;37.85;100675.09;6156436;23;20092;-73
2023/07/13 11:21:25;;;;;;;3.25;0.80;;;;;;;22.65;37.50;100665.91;6156265;23;20028;-73
2023/07/13 11:25:01;;;;;;;3.13;0.57;;;;;;;22.70;36.42;100674.31;6156422;23;20522;-72
2023/07/13 11:28:10;;;;;;;3.63;0.90;;;;;;;22.78;36.31;100663.69;6156340;23;20053;-74
2023/07/13 11:31:25;;;;;;;2.03;0.63;;;;;;;22.61;36.21;100661.91;6156342;23;20073;-76
2023/07/13 11:34:38;;;;;;;5.85;1.08;;;;;;;22.60;36.38;100670.91;6122392;23;20052;-78
2023/07/13 11:37:45;;;;;;;3.20;0.93;;;;;;;22.69;36.39;100684.13;6156313;23;20021;-74
2023/07/13 11:40:53;;;;;;;2.20;0.82;;;;;;;22.84;36.16;100675.56;6156290;23;20048;-73
2023/07/13 11:44:07;;;;;;;5.30;0.60;;;;;;;22.79;35.43;100688.53;6155929;23;20463;-76
2023/07/13 11:47:17;;;;;;;5.65;0.98;;;;;;;22.80;35.03;100675.03;6156141;23;20028;-74
2023/07/13 11:50:24;;;;;;;;;;;;;;;22.91;35.04;100674.78;6156569;23;20025;-74
2023/07/13 11:53:38;;;;;;;2.33;0.88;;;;;;;22.96;35.15;100682.34;6156215;23;19915;-72
2023/07/13 11:56:46;;;;;;;4.60;0.70;;;;;;;22.94;35.00;100686.97;6156153;23;20029;-75
2023/07/13 11:59:52;;;;;;;4.50;1.05;;;;;;;23.11;34.77;100710.13;6156051;23;20081;-72
2023/07/13 12:02:59;;;;;;;3.00;0.90;;;;;;;23.05;34.80;100691.25;6156043;23;20071;-73
2023/07/13 12:06:25;;;;;;;2.67;0.90;;;;;;;22.96;35.32;100685.84;6155867;23;20470;-74
2023/07/13 12:09:33;;;;;;;3.38;0.85;;;;;;;22.97;35.40;100684.88;6156456;23;20024;-74
2023/07/13 12:12:45;;;;;;;3.70;0.70;;;;;;;23.02;35.76;100705.72;6155730;23;20028;-73
2023/07/13 12:15:49;;;;;;;3.28;1.25;;;;;;;22.66;36.27;100688.94;6155255;23;20137;-73
2023/07/13 12:18:54;;;;;;;3.40;1.13;;;;;;;22.60;36.58;100692.22;6155637;23;20024;-72
2023/07/13 12:21:59;;;;;;;3.55;0.90;;;;;;;22.77;36.71;100699.34;6155617;23;20084;-72
2023/07/13 12:25:02;;;;;;;4.63;0.90;;;;;;;22.72;36.55;100697.16;6155588;23;20052;-72
2023/07/13 12:28:38;;;;;;;4.93;0.82;;;;;;;22.82;36.62;100698.88;6155607;23;20075;-74
2023/07/13 12:31:44;;;;;;;6.20;1.15;;;;;;;22.78;37.12;100698.34;6155286;23;20105;-73
2023/07/13 12:35:13;;;;;;;2.92;1.08;;;;;;;22.84;36.65;100708.38;6154936;23;20407;-73
2023/07/13 12:38:21;;;;;;;5.05;0.80;;;;;;;22.88;36.66;100704.44;6155595;23;20101;-73
2023/07/13 12:41:27;;;;;;;2.90;0.80;;;;;;;22.85;36.75;100711.91;6155456;23;20071;-72
2023/07/13 12:44:31;;;;;;;3.22;0.82;;;;;;;22.90;36.46;100718.44;6154232;23;20060;-75
2023/07/13 12:48:14;;;;;;;6.57;1.35;;;;;;;22.96;36.21;100723.16;6155149;23;20077;-73
2023/07/13 12:51:22;;;;;;;3.92;0.90;;;;;;;22.93;36.58;100723.47;6153861;23;20040;-73
2023/07/13 12:54:27;;;;;;;3.17;0.90;;;;;;;22.53;36.68;100731.97;6155002;23;20040;-71
2023/07/13 12:57:31;;;;;;;2.45;0.88;;;;;;;22.64;37.14;100722.91;6155552;23;20071;-71
2023/07/13 13:00:41;;;;;;;2.53;0.80;;;;;;;22.70;36.59;100735.59;6155526;23;20497;-72
2023/07/13 13:03:57;;;;;;;2.60;1.23;;;;;;;22.55;36.76;100726.47;6155444;23;20044;-73
2023/07/13 13:07:06;;;;;;;4.60;0.90;;;;;;;22.75;35.92;100720.00;6154342;23;20044;-74
2023/07/13 13:10:16;;;;;;;5.32;1.20;;;;;;;22.64;35.42;100726.38;6154857;23;20355;-74
2023/07/13 13:13:19;;;;;;;4.13;0.95;;;;;;;22.72;35.41;100720.31;6155054;23;20128;-73
2023/07/13 13:16:25;;;;;;;2.42;0.65;;;;;;;22.78;35.04;100718.84;6155492;23;20657;-72
2023/07/13 13:19:30;;;;;;;3.25;0.43;;;;;;;22.71;35.53;100723.94;6154939;23;20105;-74
2023/07/13 13:22:33;;;;;;;3.88;0.90;;;;;;;22.77;35.13;100722.50;6155171;23;20025;-74
2023/07/13 13:25:37;;;;;;;7.90;1.25;;;;;;;22.88;35.40;100725.75;6154986;23;20028;-74
2023/07/13 13:28:44;;;;;;;2.88;0.75;;;;;;;23.06;35.51;100722.25;6155109;23;20025;-74
2023/07/13 13:31:52;;;;;;;3.60;0.90;;;;;;;22.98;35.29;100723.88;6155051;23;20360;-74
2023/07/13 13:34:55;;;;;;;3.75;0.93;;;;;;;23.03;35.46;100728.72;6135628;23;20031;-75
2023/07/13 13:38:01;;;;;;;5.07;0.73;;;;;;;23.01;34.94;100737.88;6154778;23;20040;-74
2023/07/13 13:41:26;;;;;;;2.97;0.80;;;;;;;22.98;34.64;100720.38;6154811;23;20152;-76
2023/07/13 13:44:40;;;;;;;3.17;1.00;;;;;;;22.93;35.00;100725.28;6152860;23;20033;-76
2023/07/13 13:47:45;;;;;;;6.15;1.10;;;;;;;23.01;34.67;100729.91;6154374;23;20029;-75
2023/07/13 13:50:49;;;;;;;3.90;1.42;;;;;;;23.06;34.84;100725.75;6136767;23;20028;-75
2023/07/13 13:53:58;;;;;;;1.80;0.70;;;;;;;22.91;34.77;100725.47;6137332;23;20363;-74
2023/07/13 13:57:02;;;;;;;7.03;1.27;;;;;;;22.89;34.91;100732.75;6153229;23;20037;-74
2023/07/13 14:00:06;;;;;;;4.15;0.68;;;;;;;22.88;35.65;100738.25;6154037;23;20024;-78
2023/07/13 14:03:30;;;;;;;3.30;0.90;;;;;;;22.74;35.46;100740.47;6155004;23;20360;-78
2023/07/13 14:06:35;;;;;;;17.55;1.95;;;;;;;22.75;35.45;100742.16;6136955;23;20436;-76
2023/07/13 14:09:39;;;;;;;17.77;1.80;;;;;;;22.87;35.59;100740.06;6155949;23;20032;-77
2023/07/13 14:12:44;;;;;;;4.45;1.20;;;;;;;22.89;35.23;100743.44;6155085;23;20024;-77
2023/07/13 14:15:48;;;;;;;4.68;1.10;;;;;;;22.82;35.36;100736.22;6154959;23;20065;-78
2023/07/13 14:18:52;;;;;;;3.88;0.77;;;;;;;22.88;35.03;100747.09;6154897;23;20048;-76
2023/07/13 14:21:55;;;;;;;3.47;0.80;;;;;;;22.95;34.53;100739.34;6154984;23;20083;-76
2023/07/13 14:25:00;;;;;;;2.80;0.70;;;;;;;23.26;33.39;100737.06;6154958;23;20051;-78
2023/07/13 14:28:18;;;;;;;3.65;1.00;;;;;;;23.36;33.82;100740.44;6137154;23;20028;-77
2023/07/13 14:31:24;;;;;;;2.35;0.73;;;;;;;23.67;32.75;100740.78;6136569;23;20328;-77
2023/07/13 14:34:28;;;;;;;5.18;0.80;;;;;;;23.34;33.20;100738.94;6154749;23;20080;-76
2023/07/13 14:37:31;;;;;;;2.95;0.90;;;;;;;23.29;33.61;100744.72;6154738;23;20021;-77